Time;durP1;ratioP1;P1;durP2;ratioP2;P2;SDS_P1;SDS_P2;PMS_P1;PMS_P2;Temp;Humidity;BMP_temperature;BMP_pressure;BME280_temperature;BME280_humidity;BME280_pressure;Samples;Min_cycle;Max_cycle;Signal;HPM_P1;HPM_P2
2023/01/13 00:01:26;;;;;;;7.68;1.40;;;8.00;99.90;;;7.64;100.00;97178.28;5009922;28;20046;-73
2023/01/13 00:03:53;;;;;;;8.98;1.45;;;8.10;99.90;;;7.62;100.00;97186.09;5007922;28;20129;-73
2023/01/13 00:06:28;;;;;;;9.00;1.17;;;8.00;99.90;;;7.64;100.00;97137.81;5006621;28;20149;-73
2023/01/13 00:08:55;;;;;;;5.97;1.13;;;8.10;99.90;;;7.61;100.00;97111.25;5006439;28;20118;-75
2023/01/13 00:11:22;;;;;;;4.68;0.80;;;8.00;99.90;;;7.57;100.00;97115.66;5013211;28;20042;-73
2023/01/13 00:13:49;;;;;;;5.13;1.30;;;8.00;99.90;;;7.67;100.00;97093.75;5014813;28;20594;-73
2023/01/13 00:16:18;;;;;;;5.55;1.17;;;8.00;99.90;;;7.62;100.00;97092.25;5011215;28;20049;-73
2023/01/13 00:18:46;;;;;;;6.90;1.38;;;8.00;99.90;;;7.60;100.00;97092.31;5012665;28;20095;-73
2023/01/13 00:21:23;;;;;;;5.10;0.90;;;8.00;99.90;;;7.59;100.00;97088.03;5012083;28;20184;-73
2023/01/13 00:23:55;;;;;;;4.82;1.10;;;8.00;99.90;;;7.71;100.00;97060.91;5012801;28;20088;-73
2023/01/13 00:26:26;;;;;;;4.75;1.00;;;8.00;99.90;;;7.62;100.00;97056.09;5012326;28;20068;-73
2023/01/13 00:28:57;;;;;;;4.93;1.20;;;8.00;99.90;;;7.63;100.00;97057.78;5000176;28;20056;-73
2023/01/13 00:31:26;;;;;;;6.97;1.20;;;8.10;99.90;;;7.64;100.00;97047.41;5011676;28;20056;-73
2023/01/13 00:33:59;;;;;;;11.32;1.17;;;8.00;99.90;;;7.63;100.00;97096.53;5031834;28;20050;-73
2023/01/13 00:36:27;;;;;;;2.20;0.70;;;8.00;99.90;;;7.59;100.00;97028.63;5011508;28;20046;-73
2023/01/13 00:38:55;;;;;;;8.70;1.35;;;8.10;99.90;;;7.62;100.00;97038.00;5008061;28;20065;-73
2023/01/13 00:41:24;;;;;;;5.38;1.13;;;8.00;99.90;;;7.59;100.00;97054.47;5012623;28;20061;-72
2023/01/13 00:43:51;;;;;;;3.03;0.90;;;8.10;99.90;;;7.52;100.00;97029.78;5014311;28;20053;-73
2023/01/13 00:46:21;;;;;;;2.40;0.70;;;8.10;99.90;;;7.50;100.00;97041.91;5009096;28;20137;-73
2023/01/13 00:48:48;;;;;;;5.13;0.90;;;8.00;99.90;;;7.48;100.00;97054.91;5002407;28;20057;-73
2023/01/13 00:51:18;;;;;;;2.78;0.80;;;8.00;99.90;;;7.50;100.00;97018.66;5013665;28;20050;-73
2023/01/13 00:53:49;;;;;;;3.15;0.70;;;8.00;99.90;;;7.45;100.00;96980.13;5013025;28;20076;-73
2023/01/13 00:56:20;;;;;;;3.00;0.70;;;8.00;99.90;;;7.48;100.00;97004.97;5025902;28;20077;-73
2023/01/13 00:59:04;;;;;;;1.60;0.60;;;8.00;99.90;;;7.43;100.00;97015.47;5019445;28;20081;-73
2023/01/13 01:01:31;;;;;;;3.03;0.50;;;8.00;99.90;;;7.47;100.00;97062.69;5011927;28;20125;-73
2023/01/13 01:03:59;;;;;;;4.68;0.70;;;8.00;99.90;;;7.46;100.00;97023.13;5015750;28;20050;-73
2023/01/13 01:06:27;;;;;;;1.77;0.50;;;8.00;99.90;;;7.53;100.00;97021.16;5019952;28;20041;-73
2023/01/13 01:08:55;;;;;;;4.03;0.90;;;7.90;99.90;;;7.43;100.00;96981.09;5013121;28;20380;-73
2023/01/13 01:11:27;;;;;;;4.55;0.60;;;8.00;99.90;;;7.52;100.00;97014.28;5012355;28;20057;-73
2023/01/13 01:13:57;;;;;;;10.38;1.08;;;7.90;99.90;;;7.48;100.00;97059.19;4996728;28;20129;-73
2023/01/13 01:16:28;;;;;;;3.75;0.82;;;7.90;99.90;;;7.53;100.00;97027.16;5009757;28;20046;-73
2023/01/13 01:18:56;;;;;;;3.72;0.85;;;7.90;99.90;;;7.54;100.00;96995.25;5007428;28;20457;-73
2023/01/13 01:21:26;;;;;;;3.17;0.90;;;7.90;99.90;;;7.54;100.00;97025.41;5010577;28;20053;-73
2023/01/13 01:23:53;;;;;;;5.45;0.90;;;7.90;99.90;;;7.56;100.00;97027.94;5013318;28;20054;-73
2023/01/13 01:26:23;;;;;;;2.58;1.05;;;8.00;99.90;;;7.57;100.00;97027.00;5008709;28;20424;-73
2023/01/13 01:28:51;;;;;;;2.28;0.70;;;8.00;99.90;;;7.56;100.00;97021.03;5010380;28;20046;-73
2023/01/13 01:31:28;;;;;;;2.63;0.80;;;8.00;99.90;;;7.58;100.00;97031.31;5012694;28;20050;-73
2023/01/13 01:33:55;;;;;;;4.43;0.80;;;8.10;99.90;;;7.59;100.00;96979.56;5010466;28;20076;-73
2023/01/13 01:36:25;;;;;;;7.13;0.98;;;8.00;99.90;;;7.58;100.00;96977.91;5007162;28;20519;-73
2023/01/13 01:38:56;;;;;;;4.00;0.80;;;8.00;99.90;;;7.61;100.00;97003.59;5007160;28;20053;-73
2023/01/13 01:41:27;;;;;;;3.88;0.75;;;8.00;99.90;;;7.63;100.00;96967.38;4998997;28;20053;-73
2023/01/13 01:44:07;;;;;;;2.10;0.80;;;8.00;99.90;;;7.57;100.00;96937.47;5014516;28;20431;-73
2023/01/13 01:46:41;;;;;;;2.63;0.80;;;8.00;99.90;;;7.53;100.00;96961.75;5013374;28;20049;-73
2023/01/13 01:49:16;;;;;;;2.88;1.25;;;8.00;99.90;;;7.53;100.00;96931.59;5012695;28;20058;-73
2023/01/13 01:51:50;;;;;;;1.83;0.80;;;8.00;99.90;;;7.65;100.00;96950.91;5010212;28;20042;-73
2023/01/13 01:54:36;;;;;;;3.85;0.65;;;8.00;99.90;;;7.66;100.00;96959.50;5013858;28;20053;-73
2023/01/13 01:57:06;;;;;;;3.45;0.80;;;8.00;99.90;;;7.62;100.00;96952.75;4997782;28;20056;-73
2023/01/13 01:59:35;;;;;;;1.60;0.60;;;8.00;99.90;;;7.62;100.00;96929.53;5016773;28;20428;-73
2023/01/13 02:02:02;;;;;;;1.75;0.70;;;8.00;99.90;;;7.58;100.00;96941.75;5008102;28;20058;-73
2023/01/13 02:04:36;;;;;;;2.53;0.77;;;8.00;99.90;;;7.52;100.00;96954.88;5007864;28;20124;-73
2023/01/13 02:07:05;;;;;;;1.30;0.60;;;8.00;99.90;;;7.48;100.00;96971.41;5004314;28;20054;-73
2023/01/13 02:09:34;;;;;;;2.08;0.80;;;8.00;99.90;;;7.60;100.00;96965.75;5006234;28;20050;-73
2023/01/13 02:14:46;;;;;;;1.90;0.82;;;8.00;99.90;;;7.64;100.00;96964.75;5007900;28;20042;-73
2023/01/13 02:17:42;;;;;;;2.08;0.80;;;8.00;99.90;;;7.62;100.00;96950.19;5001689;28;20049;-73
2023/01/13 02:20:50;;;;;;;5.70;0.70;;;8.00;99.90;;;7.63;100.00;96978.53;5011868;28;20059;-73
2023/01/13 02:26:47;;;;;;;4.78;0.70;;;8.00;99.90;;;7.63;100.00;96963.03;5006532;28;20082;-73
2023/01/13 02:32:52;;;;;;;3.50;0.77;;;8.00;99.90;;;7.56;100.00;96909.13;5008233;28;20046;-73
2023/01/13 02:35:30;;;;;;;2.55;0.82;;;8.10;99.90;;;7.52;100.00;96971.22;5007209;28;20058;-73
2023/01/13 02:37:59;;;;;;;3.15;0.50;;;8.00;99.90;;;7.44;100.00;96985.38;5007997;28;20057;-72
2023/01/13 02:40:36;;;;;;;1.45;0.40;;;8.10;99.90;;;7.48;100.00;96945.59;5004540;28;20046;-73
2023/01/13 02:46:09;;;;;;;1.50;0.50;;;8.00;99.90;;;7.61;100.00;96982.09;5006000;28;20045;-73
2023/01/13 02:48:40;;;;;;;1.67;0.50;;;8.00;99.90;;;7.54;100.00;96964.25;5004559;28;20136;-72
2023/01/13 02:51:14;;;;;;;0.85;0.40;;;8.00;99.90;;;7.72;100.00;96992.84;5009192;28;20124;-73
2023/01/13 02:53:53;;;;;;;1.23;0.55;;;8.00;99.90;;;7.57;100.00;96952.97;5007089;28;20061;-73
2023/01/13 02:56:23;;;;;;;1.05;0.55;;;8.00;99.90;;;7.63;100.00;96957.03;5008053;28;20062;-73
2023/01/13 02:58:52;;;;;;;4.07;0.50;;;8.00;99.90;;;7.59;100.00;96958.91;5008453;28;20052;-73
2023/01/13 03:01:20;;;;;;;1.15;0.50;;;8.00;99.90;;;7.56;100.00;96997.78;5007683;28;20060;-72
2023/01/13 03:03:48;;;;;;;3.10;0.57;;;7.90;99.90;;;7.60;100.00;96975.25;4998795;28;20515;-72
2023/01/13 03:06:15;;;;;;;7.38;0.70;;;7.90;99.90;;;7.51;100.00;96994.53;5010197;28;20050;-72
2023/01/13 03:09:02;;;;;;;1.02;0.60;;;7.90;99.90;;;7.59;100.00;96969.22;5007953;28;20052;-73
2023/01/13 03:11:43;;;;;;;2.83;0.90;;;7.90;99.90;;;7.57;100.00;96950.38;5004521;28;20053;-73
2023/01/13 03:14:40;;;;;;;3.08;0.70;;;7.90;99.90;;;7.47;100.00;96955.06;5010719;28;20058;-73
2023/01/13 03:17:43;;;;;;;2.33;0.52;;;7.90;99.90;;;7.41;100.00;96969.97;5011960;28;20057;-72
2023/01/13 03:20:20;;;;;;;0.77;0.45;;;7.90;99.90;;;7.39;100.00;96977.78;5004425;28;20054;-73
2023/01/13 03:23:05;;;;;;;1.25;0.60;;;7.90;99.90;;;7.44;100.00;97125.63;5012915;28;20060;-73
2023/01/13 03:25:50;;;;;;;1.58;0.70;;;7.90;99.90;;;7.54;100.00;96994.41;5008117;28;20050;-73
2023/01/13 03:28:31;;;;;;;2.67;0.77;;;7.90;99.90;;;7.42;100.00;97006.06;4993990;28;20041;-73
2023/01/13 03:31:05;;;;;;;3.28;0.90;;;7.90;99.90;;;7.37;100.00;96950.34;5009927;28;20048;-73
2023/01/13 03:33:52;;;;;;;0.90;0.60;;;7.90;99.90;;;7.46;100.00;96965.50;4994684;28;20074;-73
2023/01/13 03:36:24;;;;;;;1.73;0.77;;;7.90;99.90;;;7.50;100.00;96967.03;5005511;28;20064;-73
2023/01/13 03:38:58;;;;;;;1.40;0.68;;;8.00;99.90;;;7.51;100.00;96937.72;5027405;28;20071;-73
2023/01/13 03:41:34;;;;;;;3.58;0.82;;;7.90;99.90;;;7.61;100.00;96971.75;5011419;28;20057;-73
2023/01/13 03:44:22;;;;;;;2.45;0.70;;;7.90;99.90;;;7.61;100.00;96927.84;5007101;28;20053;-73
2023/01/13 03:47:03;;;;;;;1.42;0.68;;;7.80;99.90;;;7.73;100.00;96974.69;5008444;28;20049;-73
2023/01/13 03:50:01;;;;;;;3.22;0.60;;;7.90;99.90;;;7.83;100.00;96969.16;5011934;28;20042;-73
2023/01/13 03:52:44;;;;;;;2.22;0.85;;;7.90;99.90;;;7.67;100.00;96982.69;5007742;28;20057;-73
2023/01/13 03:55:22;;;;;;;1.75;0.80;;;7.90;99.90;;;7.68;100.00;96976.59;5001087;28;20050;-73
2023/01/13 03:58:15;;;;;;;5.95;0.75;;;8.00;99.90;;;7.72;100.00;96964.41;5014196;28;20616;-73
2023/01/13 04:01:14;;;;;;;2.58;0.50;;;8.00;99.90;;;7.56;100.00;96982.28;5031786;28;20063;-73
2023/01/13 04:03:55;;;;;;;4.55;0.88;;;7.90;99.90;;;7.56;100.00;96989.19;5002099;28;21096;-73
2023/01/13 04:07:21;;;;;;;2.22;0.68;;;8.00;99.90;;;7.76;100.00;96953.06;5009913;28;20050;-73
2023/01/13 04:09:58;;;;;;;4.38;0.80;;;8.00;99.90;;;7.73;100.00;96938.53;4996079;28;20054;-73
2023/01/13 04:12:59;;;;;;;1.92;0.57;;;8.00;99.90;;;7.60;100.00;96934.78;5016408;28;20061;-73
2023/01/13 04:15:21;;;;;;;2.13;0.50;;;8.00;99.90;;;7.73;100.00;96935.09;5016420;28;20512;-73
2023/01/13 04:17:52;;;;;;;2.03;0.80;;;8.00;99.90;;;7.63;100.00;96951.88;5015131;28;20053;-73
2023/01/13 04:20:19;;;;;;;1.55;0.60;;;8.00;99.90;;;7.68;100.00;96924.13;5016911;28;20057;-73
2023/01/13 04:22:46;;;;;;;2.05;0.50;;;7.90;99.90;;;7.72;100.00;96923.91;5016084;28;20062;-73
2023/01/13 04:25:14;;;;;;;2.97;0.57;;;8.00;99.90;;;7.70;100.00;96948.13;5012597;28;20144;-73
2023/01/13 04:27:41;;;;;;;1.60;0.60;;;8.00;99.90;;;7.68;100.00;96935.28;5012249;28;20178;-73
2023/01/13 04:30:09;;;;;;;3.05;0.60;;;8.00;99.90;;;7.64;100.00;96945.81;5015195;28;20061;-73
2023/01/13 04:32:36;;;;;;;2.90;0.88;;;8.00;99.90;;;7.67;100.00;96904.38;5011138;28;20053;-73
2023/01/13 04:35:04;;;;;;;2.83;0.70;;;8.00;99.90;;;7.69;100.00;96905.97;5013040;28;20072;-73
2023/01/13 04:37:31;;;;;;;2.50;0.73;;;8.00;99.90;;;7.70;100.00;96902.47;5016890;28;20049;-73
2023/01/13 04:39:58;;;;;;;3.53;0.55;;;7.90;99.90;;;7.78;100.00;96881.50;5012077;28;20054;-73
2023/01/13 04:42:25;;;;;;;2.35;0.85;;;8.00;99.90;;;7.79;100.00;96934.84;5011951;28;20063;-73
2023/01/13 04:44:52;;;;;;;3.80;0.85;;;8.00;99.90;;;7.73;100.00;96948.00;5011937;28;20045;-73
2023/01/13 04:47:19;;;;;;;1.48;0.60;;;8.00;99.90;;;7.75;100.00;96947.06;5012067;28;20440;-73
2023/01/13 04:49:46;;;;;;;3.85;0.82;;;8.00;99.90;;;7.78;100.00;96881.50;5025552;28;20045;-73
2023/01/13 04:52:13;;;;;;;3.72;0.70;;;8.00;99.90;;;7.84;100.00;96912.22;5008147;28;20045;-73
2023/01/13 04:54:40;;;;;;;2.00;0.60;;;8.00;99.90;;;7.91;100.00;96916.25;5009627;28;20056;-73
2023/01/13 04:57:07;;;;;;;2.38;0.70;;;8.00;99.90;;;7.81;100.00;96901.19;5009422;28;20050;-73
2023/01/13 04:59:34;;;;;;;2.10;0.73;;;8.00;99.90;;;7.83;100.00;96901.97;5012462;28;20057;-73
2023/01/13 05:02:01;;;;;;;2.63;0.70;;;8.00;99.90;;;7.77;100.00;96943.56;5009948;28;20049;-73
2023/01/13 05:04:28;;;;;;;5.60;0.80;;;8.00;99.90;;;7.83;100.00;96905.41;5015602;28;20069;-73
2023/01/13 05:06:55;;;;;;;3.78;0.80;;;8.10;99.90;;;7.87;100.00;96906.94;4995690;28;20129;-73
2023/01/13 05:09:22;;;;;;;5.75;1.25;;;8.00;99.90;;;7.85;100.00;96915.69;5028798;28;20049;-73
2023/01/13 05:17:23;;;;;;;3.42;0.70;;;8.00;99.90;;;7.71;100.00;96937.75;5012175;28;20057;-73
2023/01/13 05:19:50;;;;;;;2.03;0.65;;;8.00;99.90;;;7.72;100.00;96894.66;5012207;28;20057;-73
2023/01/13 05:25:21;;;;;;;3.10;0.70;;;8.00;99.90;;;7.69;100.00;96905.97;5010656;28;20054;-74
2023/01/13 05:27:53;;;;;;;3.72;0.63;;;8.00;99.90;;;7.59;100.00;96948.56;5005671;28;20427;-74
2023/01/13 05:30:25;;;;;;;1.63;0.70;;;8.00;99.90;;;7.62;100.00;96945.88;4998715;28;20841;-74
2023/01/13 05:32:52;;;;;;;5.32;0.60;;;8.00;99.90;;;7.66;100.00;96933.66;5007414;28;20121;-74
2023/01/13 05:35:20;;;;;;;1.10;0.45;;;8.00;99.90;;;7.72;100.00;96899.84;4998446;28;20049;-74
2023/01/13 05:37:47;;;;;;;2.65;0.68;;;8.10;99.90;;;7.67;100.00;96927.63;5013958;28;20057;-73
2023/01/13 05:43:20;;;;;;;2.55;0.70;;;8.10;99.90;;;7.72;100.00;96941.16;5019182;28;20057;-73
2023/01/13 05:46:00;;;;;;;2.75;0.70;;;8.00;99.90;;;7.78;100.00;96984.84;5017776;28;20054;-73
2023/01/13 05:48:35;;;;;;;2.13;0.60;;;8.00;99.90;;;7.88;100.00;97045.56;5006209;28;20436;-73
2023/01/13 05:51:06;;;;;;;2.08;0.60;;;8.10;99.90;;;7.95;100.00;97005.66;5007378;28;20053;-74
2023/01/13 05:53:33;;;;;;;2.67;0.40;;;8.00;99.90;;;7.62;100.00;97025.09;4998133;28;20073;-75
2023/01/13 05:56:04;;;;;;;1.10;0.30;;;7.90;99.90;;;7.49;100.00;97029.91;5013171;28;20046;-75
2023/01/13 05:58:31;;;;;;;2.33;0.40;;;7.70;99.90;;;7.37;100.00;97032.94;5018494;28;20088;-75
2023/01/13 06:01:05;;;;;;;0.77;0.30;;;7.60;99.90;;;7.47;100.00;97045.47;5001364;28;20067;-74
2023/01/13 06:03:34;;;;;;;0.45;0.30;;;7.60;99.90;;;7.50;100.00;97049.66;5007193;28;20057;-74
2023/01/13 06:06:02;;;;;;;1.08;0.30;;;7.60;99.90;;;7.46;100.00;97046.38;5010678;28;20053;-74
2023/01/13 06:08:31;;;;;;;1.30;0.40;;;7.60;99.90;;;7.37;100.00;97051.88;5015251;28;20076;-75
2023/01/13 06:10:58;;;;;;;2.08;0.30;;;7.50;99.90;;;7.37;100.00;97056.19;5011744;28;20057;-74
2023/01/13 06:13:26;;;;;;;1.63;0.30;;;7.50;99.90;;;7.32;100.00;97066.69;5021270;28;20129;-74
2023/01/13 06:15:57;;;;;;;2.13;0.30;;;7.50;99.90;;;7.40;100.00;97053.50;5007056;28;20156;-74
2023/01/13 06:18:26;;;;;;;1.60;0.33;;;7.50;99.90;;;7.47;100.00;97052.38;5010695;28;20049;-73
2023/01/13 06:20:54;;;;;;;2.22;0.22;;;7.60;99.90;;;7.44;100.00;97037.84;5007611;28;20077;-74
2023/01/13 06:23:21;;;;;;;1.85;0.50;;;7.60;99.90;;;7.42;100.00;97020.72;5011839;28;20050;-74
2023/01/13 06:26:28;;;;;;;1.85;0.28;;;7.60;99.90;;;7.45;100.00;96950.88;5006204;28;20042;-74
2023/01/13 06:28:55;;;;;;;2.72;0.50;;;7.60;99.90;;;7.45;100.00;96925.88;5010928;28;20479;-74
2023/01/13 06:31:23;;;;;;;2.60;0.40;;;7.50;99.90;;;7.26;100.00;96958.53;5008771;28;20050;-73
2023/01/13 06:34:01;;;;;;;1.58;0.30;;;7.40;99.90;;;7.18;100.00;96934.75;5013488;28;20062;-73
2023/01/13 06:36:34;;;;;;;2.33;0.40;;;7.40;99.90;;;7.21;100.00;96908.81;5003463;28;20057;-73
2023/01/13 06:39:03;;;;;;;3.10;0.50;;;7.30;99.90;;;7.13;100.00;96907.38;5007213;28;20060;-74
2023/01/13 06:44:20;;;;;;;2.95;0.50;;;7.30;99.90;;;7.04;100.00;96900.00;5008298;28;20050;-73
2023/01/13 06:46:47;;;;;;;2.72;0.38;;;7.30;99.90;;;7.12;100.00;96891.97;4991004;28;20115;-74
2023/01/13 06:49:14;;;;;;;1.08;0.38;;;7.30;99.90;;;6.99;100.00;96906.25;5010175;28;20077;-74
2023/01/13 06:51:41;;;;;;;1.67;0.40;;;7.20;99.90;;;6.85;100.00;96917.09;5012983;28;20124;-73
2023/01/13 06:54:08;;;;;;;3.13;0.43;;;7.20;99.90;;;6.78;100.00;96908.75;5006266;28;20676;-73
2023/01/13 06:56:35;;;;;;;1.67;0.50;;;7.20;99.90;;;6.74;100.00;96908.94;5004569;28;20148;-73
2023/01/13 06:59:02;;;;;;;2.58;0.50;;;7.10;99.90;;;6.80;100.00;96899.22;4990100;28;20113;-73
2023/01/13 07:01:29;;;;;;;3.17;0.30;;;7.10;99.90;;;6.76;100.00;96904.56;5003670;28;20057;-73
2023/01/13 07:03:57;;;;;;;3.08;0.50;;;7.00;99.90;;;6.76;100.00;96894.22;5010334;28;20526;-74
2023/01/13 07:06:24;;;;;;;4.03;0.50;;;6.90;99.90;;;6.88;100.00;96884.25;5007735;28;20141;-73
2023/01/13 07:08:51;;;;;;;1.17;0.40;;;6.90;99.90;;;6.95;100.00;96884.88;5007829;28;20053;-72
2023/01/13 07:11:18;;;;;;;2.67;0.70;;;6.90;99.90;;;6.83;100.00;96873.28;5006768;28;20042;-73
2023/01/13 07:16:31;;;;;;;1.60;0.50;;;6.90;99.90;;;6.89;100.00;96856.75;5013825;28;20535;-73
2023/01/13 07:18:58;;;;;;;1.73;0.45;;;6.80;99.90;;;6.80;100.00;96849.38;5004512;28;20883;-72
2023/01/13 07:21:25;;;;;;;4.72;0.55;;;6.90;99.90;;;6.81;100.00;96836.41;5011964;28;20057;-72
2023/01/13 07:23:52;;;;;;;3.38;0.65;;;6.80;99.90;;;6.83;100.00;96837.19;5004541;28;20079;-73
2023/01/13 07:26:20;;;;;;;3.97;0.60;;;6.80;99.90;;;6.78;100.00;96843.44;5005252;28;20046;-74
2023/01/13 07:28:47;;;;;;;7.75;0.73;;;6.80;99.90;;;6.76;100.00;96851.22;5024496;28;20565;-73
2023/01/13 07:31:20;;;;;;;2.53;0.50;;;6.80;99.90;;;6.77;100.00;96845.16;5006462;28;20507;-73
2023/01/13 07:33:47;;;;;;;7.60;0.70;;;6.80;99.90;;;6.88;100.00;96865.38;4998089;28;20130;-73
2023/01/13 07:36:15;;;;;;;2.92;0.50;;;6.80;99.90;;;6.82;100.00;96871.63;5012028;28;20124;-73
2023/01/13 07:38:43;;;;;;;5.78;0.70;;;6.90;99.90;;;6.80;100.00;96883.75;5005554;28;20042;-73
2023/01/13 07:44:03;;;;;;;2.65;0.60;;;6.90;99.90;;;6.97;100.00;96885.66;4999820;28;20052;-73
2023/01/13 07:46:32;;;;;;;4.97;0.88;;;7.00;99.90;;;6.78;100.00;96885.53;5009908;28;20462;-73
2023/01/13 07:48:59;;;;;;;6.63;0.70;;;7.00;99.90;;;6.81;100.00;96902.63;5008369;28;20503;-73
2023/01/13 07:51:27;;;;;;;4.82;0.90;;;7.00;99.90;;;6.96;100.00;96883.16;5000149;28;20203;-73
2023/01/13 07:53:54;;;;;;;3.65;0.60;;;7.10;99.90;;;6.83;100.00;96887.94;4989421;28;20050;-72
2023/01/13 07:56:21;;;;;;;7.65;0.90;;;7.10;99.90;;;6.85;100.00;96896.47;5007598;28;20046;-73
2023/01/13 07:58:52;;;;;;;3.90;0.90;;;7.10;99.90;;;6.81;100.00;96903.47;5005474;28;20050;-73
2023/01/13 08:01:20;;;;;;;4.15;0.63;;;7.10;99.90;;;6.95;100.00;96889.19;5007297;28;20045;-72
2023/01/13 08:03:47;;;;;;;5.32;0.70;;;7.30;99.90;;;7.23;100.00;96894.97;5003255;28;20096;-72
2023/01/13 08:06:14;;;;;;;3.90;0.88;;;7.30;99.90;;;7.11;100.00;96887.69;5004038;28;20046;-72
2023/01/13 08:08:41;;;;;;;3.75;0.65;;;7.30;99.90;;;7.08;100.00;96891.22;5004395;28;20053;-72
2023/01/13 08:11:08;;;;;;;6.07;0.80;;;7.30;99.90;;;6.89;100.00;96904.03;5007150;28;20055;-72
2023/01/13 08:13:35;;;;;;;5.32;0.80;;;7.30;99.90;;;7.15;100.00;96898.75;5003025;28;20056;-72
2023/01/13 08:16:09;;;;;;;7.10;1.00;;;7.20;99.90;;;7.09;100.00;96905.84;5008593;28;20427;-72
2023/01/13 08:18:37;;;;;;;7.93;1.13;;;7.20;99.90;;;7.08;100.00;96904.13;4996443;28;20085;-72
2023/01/13 08:21:13;;;;;;;9.75;1.10;;;7.30;99.90;;;6.97;100.00;96900.28;5008218;28;20569;-73
2023/01/13 08:23:44;;;;;;;6.22;0.80;;;7.30;99.90;;;7.03;100.00;96908.66;5004267;28;20418;-73
2023/01/13 08:26:16;;;;;;;5.38;0.70;;;7.30;99.90;;;6.98;100.00;96902.81;5008547;28;20050;-72
2023/01/13 08:28:44;;;;;;;5.22;0.93;;;7.30;99.90;;;6.95;100.00;96897.78;5002727;28;20060;-72
2023/01/13 08:31:14;;;;;;;10.43;1.00;;;7.30;99.90;;;6.99;100.00;96898.50;5007268;28;20426;-72
2023/01/13 08:33:42;;;;;;;8.60;0.90;;;7.30;99.90;;;7.08;100.00;96901.56;4990274;28;20096;-72
2023/01/13 08:36:11;;;;;;;7.85;1.20;;;7.30;99.90;;;6.90;100.00;96925.50;5019011;28;20073;-72
2023/01/13 08:38:39;;;;;;;9.90;1.48;;;7.40;99.90;;;7.01;100.00;96936.25;5009671;28;20091;-72
2023/01/13 08:41:53;;;;;;;5.90;1.00;;;7.30;99.90;;;7.00;100.00;96938.88;5012455;28;20052;-72
2023/01/13 08:44:02;;;;;;;7.88;1.42;;;7.40;99.90;;;7.05;100.00;96937.81;5014376;28;20494;-72
2023/01/13 08:46:29;;;;;;;4.65;1.17;;;7.40;99.90;;;7.17;100.00;96938.22;5014398;28;20415;-72
2023/01/13 08:48:56;;;;;;;7.80;1.20;;;7.40;99.90;;;7.11;100.00;96959.94;4992907;28;20141;-72
2023/01/13 08:51:23;;;;;;;6.82;1.20;;;7.60;99.90;;;7.34;100.00;96951.28;5006549;28;20139;-72
2023/01/13 08:53:50;;;;;;;7.95;1.20;;;7.70;99.90;;;7.29;100.00;96958.38;5006528;28;20061;-72
2023/01/13 08:56:17;;;;;;;11.43;1.60;;;7.80;99.90;;;7.38;100.00;96950.28;5006112;28;20060;-73
2023/01/13 08:58:45;;;;;;;8.07;1.25;;;7.90;99.90;;;7.11;100.00;96976.25;5006067;28;20465;-72
2023/01/13 09:01:21;;;;;;;5.18;1.00;;;7.90;99.90;;;7.33;100.00;96944.47;5005589;28;20048;-72
2023/01/13 09:03:49;;;;;;;7.00;1.40;;;7.90;99.90;;;7.37;100.00;96961.53;5013509;28;20119;-71
2023/01/13 09:06:16;;;;;;;11.57;2.05;;;7.90;99.90;;;7.24;100.00;96970.66;5011630;28;20046;-71
2023/01/13 09:08:43;;;;;;;11.00;2.20;;;7.90;99.90;;;7.29;100.00;96966.13;5009104;28;20045;-71
2023/01/13 09:14:04;;;;;;;10.23;1.65;;;7.80;99.90;;;7.21;100.00;96969.03;5006655;28;20045;-71
2023/01/13 09:16:31;;;;;;;12.57;1.67;;;7.90;99.90;;;7.17;100.00;96974.38;5011165;28;20052;-73
2023/01/13 09:18:58;;;;;;;10.20;1.70;;;8.00;99.90;;;7.23;100.00;96977.56;5012618;28;20164;-71
2023/01/13 09:21:26;;;;;;;8.57;1.40;;;7.90;99.90;;;7.26;100.00;96992.09;5007384;28;20092;-71
2023/01/13 09:23:52;;;;;;;8.32;1.75;;;7.90;99.90;;;7.24;100.00;96997.28;5002216;28;20064;-70
2023/01/13 09:26:20;;;;;;;9.50;1.63;;;7.90;99.90;;;7.23;100.00;97002.50;5006423;28;20050;-72
2023/01/13 09:28:47;;;;;;;4.75;0.95;;;8.00;99.90;;;7.51;100.00;97002.28;5007866;28;20050;-72
2023/01/13 09:31:14;;;;;;;8.40;1.70;;;7.90;99.90;;;7.27;100.00;96989.41;5011275;28;20494;-73
2023/01/13 09:36:27;;;;;;;9.20;1.20;;;8.00;99.90;;;7.33;100.00;97027.09;5011835;28;20166;-72
2023/01/13 09:38:54;;;;;;;9.13;1.55;;;8.00;99.90;;;7.48;100.00;97026.50;5004577;28;20061;-72
2023/01/13 09:44:26;;;;;;;10.10;1.52;;;8.10;99.90;;;7.63;100.00;97031.94;5005282;28;20173;-73
2023/01/13 09:47:00;;;;;;;9.30;1.33;;;8.10;99.90;;;7.49;100.00;97041.06;5003758;28;20063;-73
2023/01/13 09:49:36;;;;;;;26.30;2.60;;;8.10;99.90;;;7.57;100.00;97045.94;5012254;28;20045;-72
2023/01/13 09:52:12;;;;;;;8.32;1.25;;;8.20;99.90;;;7.62;100.00;97044.03;5010222;28;20045;-72
2023/01/13 09:55:14;;;;;;;12.77;1.50;;;8.30;99.90;;;7.60;100.00;97053.59;5009360;28;20049;-72
2023/01/13 09:57:42;;;;;;;12.57;1.30;;;8.50;99.90;;;7.71;100.00;97060.91;5009051;28;20077;-72
2023/01/13 10:00:24;;;;;;;11.75;1.63;;;8.40;99.90;;;7.67;100.00;97080.84;5012400;28;20053;-72
2023/01/13 10:02:57;;;;;;;9.68;1.70;;;8.30;99.90;;;7.56;100.00;97072.66;5006739;28;20050;-72
2023/01/13 10:05:36;;;;;;;;;;;8.30;99.90;;;7.52;100.00;97060.78;5009720;28;20050;-72
2023/01/13 10:08:29;;;;;;;9.35;1.30;;;8.20;99.90;;;7.46;100.00;97081.69;5010317;28;19930;-72
2023/01/13 10:14:18;;;;;;;12.73;1.83;;;8.40;99.90;;;7.39;100.00;97093.13;5001379;28;20512;-72
2023/01/13 10:17:10;;;;;;;16.95;1.33;;;8.30;99.90;;;7.33;100.00;97096.78;5001596;28;20121;-72
2023/01/13 10:19:48;;;;;;;13.87;1.53;;;8.30;99.90;;;7.40;100.00;97095.66;5006561;28;20054;-72
2023/01/13 10:22:24;;;;;;;15.60;1.35;;;8.20;99.90;;;7.40;100.00;97077.59;5003746;28;20068;-72
2023/01/13 10:25:20;;;;;;;12.43;1.20;;;8.20;99.90;;;7.42;100.00;97080.94;5003430;28;20057;-72
2023/01/13 10:27:49;;;;;;;10.93;1.38;;;8.20;99.90;;;7.30;100.00;97090.00;5007846;28;20053;-72
2023/01/13 10:30:18;;;;;;;11.35;1.88;;;8.10;99.90;;;7.30;100.00;97104.66;5009478;28;20064;-72
2023/01/13 10:32:58;;;;;;;14.38;1.40;;;8.00;99.90;;;7.27;100.00;97110.75;5001927;28;20148;-72
2023/01/13 10:35:47;;;;;;;10.23;1.60;;;8.00;99.90;;;7.30;100.00;97120.16;5007024;28;20073;-72
2023/01/13 10:38:24;;;;;;;11.43;1.63;;;8.10;99.90;;;7.48;100.00;97103.09;5006169;28;20053;-72
2023/01/13 10:41:04;;;;;;;18.80;1.90;;;8.20;99.90;;;7.37;100.00;97098.38;5022511;28;20057;-72
2023/01/13 10:43:31;;;;;;;9.38;1.65;;;8.30;99.90;;;7.43;100.00;97103.28;5007699;28;20477;-72
2023/01/13 10:46:04;;;;;;;17.02;2.13;;;8.40;99.90;;;7.46;100.00;97120.41;5003584;28;20069;-72
2023/01/13 10:48:59;;;;;;;;;;;8.50;99.90;;;7.62;100.00;97102.56;5003973;28;20080;-72
2023/01/13 10:51:46;;;;;;;14.95;2.00;;;8.60;99.90;;;7.60;100.00;97105.25;4999720;28;19932;-72
2023/01/13 10:54:23;;;;;;;9.23;1.65;;;8.60;99.90;;;7.62;100.00;97120.66;5006274;28;20045;-72
2023/01/13 10:57:25;;;;;;;14.57;2.03;;;8.50;99.90;;;7.74;100.00;97102.13;5009828;28;20050;-71
2023/01/13 10:59:53;;;;;;;19.52;1.95;;;8.70;99.90;;;7.81;100.00;97090.63;5022144;28;20519;-72
2023/01/13 11:02:25;;;;;;;11.80;1.88;;;8.70;99.90;;;7.66;100.00;97098.97;5004634;28;20507;-71
2023/01/13 11:04:53;;;;;;;13.33;1.87;;;8.50;99.90;;;7.53;100.00;97102.03;5005557;28;20057;-72
2023/01/13 11:07:38;;;;;;;11.93;1.70;;;8.30;99.90;;;7.58;100.00;97107.03;5008510;28;20076;-72
2023/01/13 11:10:08;;;;;;;10.95;1.88;;;8.10;99.90;;;7.33;100.00;97104.53;4987922;28;20050;-72
2023/01/13 11:13:09;;;;;;;15.43;2.40;;;8.00;99.90;;;7.21;100.00;97115.31;5008909;28;20430;-72
2023/01/13 11:16:14;;;;;;;12.07;1.42;;;7.90;99.90;;;7.17;100.00;97117.16;5005139;28;20050;-72
2023/01/13 11:19:10;;;;;;;13.43;1.50;;;7.90;99.90;;;7.23;100.00;97127.28;5007275;28;20046;-72
2023/01/13 11:22:10;;;;;;;14.30;1.50;;;7.90;99.90;;;7.27;100.00;97126.22;4985393;28;20798;-72
2023/01/13 11:24:57;;;;;;;15.07;1.77;;;8.00;99.90;;;7.12;100.00;97160.38;5007309;28;20059;-72
2023/01/13 11:27:54;;;;;;;12.27;1.90;;;8.00;99.90;;;7.06;100.00;97142.50;4995299;28;20073;-72
2023/01/13 11:30:38;;;;;;;12.55;1.70;;;7.90;99.90;;;7.03;100.00;97127.97;5011086;28;20064;-72
2023/01/13 11:33:14;;;;;;;15.80;1.70;;;7.70;99.90;;;6.73;100.00;97173.75;5010466;28;20095;-73
2023/01/13 11:36:00;;;;;;;12.15;1.50;;;7.40;99.90;;;6.59;100.00;97176.78;5005616;28;20419;-72